Map

Track Data

SID SEASON NUMBER BASIN SUBBASIN NAME ISO_TIME NATURE LAT LON WMO_WIND WMO_PRES WMO_AGENCY TRACK_TYPE DIST2LAND LANDFALL IFLAG USA_AGENCY USA_ATCF_ID USA_LAT USA_LON USA_RECORD USA_STATUS USA_WIND USA_PRES USA_SSHS USA_R34_NE USA_R34_SE USA_R34_SW USA_R34_NW USA_R50_NE USA_R50_SE USA_R50_SW USA_R50_NW USA_R64_NE USA_R64_SE USA_R64_SW USA_R64_NW USA_POCI USA_ROCI USA_RMW USA_EYE TOKYO_LAT TOKYO_LON TOKYO_GRADE TOKYO_WIND TOKYO_PRES TOKYO_R50_DIR TOKYO_R50_LONG TOKYO_R50_SHORT TOKYO_R30_DIR TOKYO_R30_LONG TOKYO_R30_SHORT TOKYO_LAND CMA_LAT CMA_LON CMA_CAT CMA_WIND CMA_PRES HKO_LAT HKO_LON HKO_CAT HKO_WIND HKO_PRES NEWDELHI_LAT NEWDELHI_LON NEWDELHI_GRADE NEWDELHI_WIND NEWDELHI_PRES NEWDELHI_CI NEWDELHI_DP NEWDELHI_POCI REUNION_LAT REUNION_LON REUNION_TYPE REUNION_WIND REUNION_PRES REUNION_TNUM REUNION_CI REUNION_RMW REUNION_R34_NE REUNION_R34_SE REUNION_R34_SW REUNION_R34_NW REUNION_R50_NE REUNION_R50_SE REUNION_R50_SW REUNION_R50_NW REUNION_R64_NE REUNION_R64_SE REUNION_R64_SW REUNION_R64_NW BOM_LAT BOM_LON BOM_TYPE BOM_WIND BOM_PRES BOM_TNUM BOM_CI BOM_RMW BOM_R34_NE BOM_R34_SE BOM_R34_SW BOM_R34_NW BOM_R50_NE BOM_R50_SE BOM_R50_SW BOM_R50_NW BOM_R64_NE BOM_R64_SE BOM_R64_SW BOM_R64_NW BOM_ROCI BOM_POCI BOM_EYE BOM_POS_METHOD BOM_PRES_METHOD NADI_LAT NADI_LON NADI_CAT NADI_WIND NADI_PRES WELLINGTON_LAT WELLINGTON_LON WELLINGTON_WIND WELLINGTON_PRES DS824_LAT DS824_LON DS824_STAGE DS824_WIND DS824_PRES TD9636_LAT TD9636_LON TD9636_STAGE TD9636_WIND TD9636_PRES TD9635_LAT TD9635_LON TD9635_WIND TD9635_PRES TD9635_ROCI NEUMANN_LAT NEUMANN_LON NEUMANN_CLASS NEUMANN_WIND NEUMANN_PRES MLC_LAT MLC_LON MLC_CLASS MLC_WIND MLC_PRES USA_GUST BOM_GUST BOM_GUST_PER REUNION_GUST REUNION_GUST_PER USA_SEAHGT USA_SEARAD_NE USA_SEARAD_SE USA_SEARAD_SW USA_SEARAD_NW STORM_SPEED STORM_DIR
1852278N14293 1852 14 NA CS NOT_NAMED 1852-10-03 12:00:00 TS 14.0000 -67.0000 main 348 333 _____________O -1 14.0000 -67.0000 TD 30 12 285
1852278N14293 1852 14 NA CS NOT_NAMED 1852-10-03 15:00:00 TS 14.1628 -67.6097 main 339 307 _____________P -1 14.1628 -67.6097 TD 30 12 284
1852278N14293 1852 14 NA CS NOT_NAMED 1852-10-03 18:00:00 TS 14.3000 -68.2000 main 307 288 _____________O -1 14.3000 -68.2000 TD 30 11 282
1852278N14293 1852 14 NA CS NOT_NAMED 1852-10-03 21:00:00 TS 14.3998 -68.7577 main 283 275 _____________P -1 14.3998 -68.7577 TD 32 11 281
1852278N14293 1852 14 NA CS NOT_NAMED 1852-10-04 00:00:00 TS 14.5000 -69.3000 main 276 272 _____________O -1 14.5000 -69.3000 TS 35 11 283
1852278N14293 1852 14 NA CS NOT_NAMED 1852-10-04 03:00:00 TS 14.6499 -69.8500 main 280 280 _____________P -1 14.6499 -69.8500 TS 35 11 286
1852278N14293 1852 14 NA CS NOT_NAMED 1852-10-04 06:00:00 TS 14.8000 -70.4000 main 293 282 _____________O -1 14.8000 -70.4000 TS 35 11 283
1852278N14293 1852 14 NA CS NOT_NAMED 1852-10-04 09:00:00 TS 14.8924 -70.9577 main 285 280 _____________P -1 14.8924 -70.9577 TS 37 11 281
1852278N14293 1852 14 NA CS NOT_NAMED 1852-10-04 12:00:00 TS 15.0000 -71.5000 main 291 273 _____________O -1 15.0000 -71.5000 TS 40 11 286
1852278N14293 1852 14 NA CS NOT_NAMED 1852-10-04 15:00:00 TS 15.1848 -72.0075 main 276 268 _____________P -1 15.1848 -72.0075 TS 40 10 293
1852278N14293 1852 14 NA CS NOT_NAMED 1852-10-04 18:00:00 TS 15.4000 -72.5000 main 272 267 _____________O -1 15.4000 -72.5000 TS 40 10 293
1852278N14293 1852 14 NA CS NOT_NAMED 1852-10-04 21:00:00 TS 15.5999 -73.0001 main 280 248 _____________P -1 15.5999 -73.0001 TS 42 10 293
1852278N14293 1852 14 NA CS NOT_NAMED 1852-10-05 00:00:00 TS 15.8000 -73.5000 main 248 223 _____________O -1 15.8000 -73.5000 TS 45 10 293
1852278N14293 1852 14 NA CS NOT_NAMED 1852-10-05 03:00:00 TS 16.0074 -74.0000 main 224 208 _____________P -1 16.0074 -74.0000 TS 47 10 293
1852278N14293 1852 14 NA CS NOT_NAMED 1852-10-05 06:00:00 TS 16.2000 -74.5000 main 211 208 _____________O -1 16.2000 -74.5000 TS 50 10 289
1852278N14293 1852 14 NA CS NOT_NAMED 1852-10-05 09:00:00 TS 16.3500 -75.0226 main 210 173 _____________P -1 16.3500 -75.0226 TS 52 10 287
1852278N14293 1852 14 NA CS NOT_NAMED 1852-10-05 12:00:00 TS 16.5000 -75.5000 main 173 138 _____________O -1 16.5000 -75.5000 TS 55 9 293
1852278N14293 1852 14 NA CS NOT_NAMED 1852-10-05 15:00:00 TS 16.6923 -75.8726 main 138 111 _____________P -1 16.6923 -75.8726 TS 57 8 301
1852278N14293 1852 14 NA CS NOT_NAMED 1852-10-05 18:00:00 TS 16.9000 -76.2000 main 111 89 _____________O -1 16.9000 -76.2000 TS 60 8 302
1852278N14293 1852 14 NA CS NOT_NAMED 1852-10-05 21:00:00 TS 17.0999 -76.5501 main 89 78 _____________P -1 17.0999 -76.5501 TS 60 4 47
1852278N14293 1852 14 NA CS NOT_NAMED 1852-10-06 00:00:00 TS 17.2000 -75.8667 90 hurdat_atl main 84 79 O____________O hurdat_atl AL051852 17.0000 -73.8000 HU 90 2 17.3000 -76.9000 TS 60 7 76
1852278N14293 1852 14 NA CS NOT_NAMED 1852-10-06 03:00:00 TS 17.2777 -75.8262 main 79 70 P____________P AL051852 17.0479 -74.3950 HU 90 2 17.5075 -77.2575 TS 67 2 310
1852278N14293 1852 14 NA CS NOT_NAMED 1852-10-06 06:00:00 TS 17.3400 -76.0400 90 hurdat_atl main 70 55 O____________O hurdat_atl AL051852 17.1000 -75.0000 HU 90 2 17.7000 -77.6000 HU 75 5 281
1852278N14293 1852 14 NA CS NOT_NAMED 1852-10-06 09:00:00 TS 17.3780 -76.3677 main 55 35 P____________P AL051852 17.1572 -75.6275 HU 90 2 17.8195 -77.8482 HU 77 9 278
1852278N14293 1852 14 NA CS NOT_NAMED 1852-10-06 12:00:00 TS 17.4667 -76.9333 90 hurdat_atl main 35 22 O____________O hurdat_atl AL051852 17.2000 -76.3000 HU 90 2 18.0000 -78.2000 HU 80 12 279
1852278N14293 1852 14 NA CS NOT_NAMED 1852-10-06 15:00:00 TS 17.5673 -77.6220 main 33 33 P____________P AL051852 17.1696 -77.0131 HU 90 2 18.3628 -78.8397 HU 82 14 281
1852278N14293 1852 14 NA CS NOT_NAMED 1852-10-06 18:00:00 TS 17.7333 -78.4000 90 hurdat_atl main 55 45 O____________O hurdat_atl AL051852 17.2000 -77.8000 HU 90 2 18.8000 -79.6000 HU 85 16 286
1852278N14293 1852 14 NA CS NOT_NAMED 1852-10-06 21:00:00 TS 18.0081 -79.2133 main 87 87 P____________P AL051852 17.4123 -78.6697 HU 90 2 19.1997 -80.3003 HU 85 17 291
1852278N14293 1852 14 NA CS NOT_NAMED 1852-10-07 00:00:00 TS 18.3333 -80.0667 90 hurdat_atl main 179 179 O____________O hurdat_atl AL051852 17.7000 -79.6000 HU 90 2 19.6000 -81.0000 HU 85 18 291
1852278N14293 1852 14 NA CS NOT_NAMED 1852-10-07 03:00:00 TS 18.6357 -80.9460 main 267 267 P____________P AL051852 17.9500 -80.5651 HU 90 2 20.0073 -81.7077 HU 85 18 290
1852278N14293 1852 14 NA CS NOT_NAMED 1852-10-07 06:00:00 TS 18.9333 -81.8000 90 hurdat_atl main 298 248 O____________O hurdat_atl AL051852 18.2000 -81.5000 HU 90 2 20.4000 -82.4000 HU 85 17 290
1852278N14293 1852 14 NA CS NOT_NAMED 1852-10-07 09:00:00 TS 19.2064 -82.5904 main 246 216 P____________P AL051852 18.4271 -82.3455 HU 90 2 20.7649 -83.0802 HU 85 15 292
1852278N14293 1852 14 NA CS NOT_NAMED 1852-10-07 12:00:00 TS 19.5000 -83.3000 90 hurdat_atl main 218 206 O____________O hurdat_atl AL051852 18.7000 -83.1000 HU 90 2 21.1000 -83.7000 HU 85 14 297
1852278N14293 1852 14 NA CS NOT_NAMED 1852-10-07 15:00:00 TS 19.8488 -83.9327 main 211 178 P____________P AL051852 19.0697 -83.7876 HU 90 2 21.4071 -84.2229 HU 85 13 303
1852278N14293 1852 14 NA CS NOT_NAMED 1852-10-07 18:00:00 TS 20.2333 -84.5000 90 hurdat_atl main 178 135 O____________O hurdat_atl AL051852 19.5000 -84.4000 HU 90 2 21.7000 -84.7000 HU 85 13 307
1852278N14293 1852 14 NA CS NOT_NAMED 1852-10-07 21:00:00 TS 20.6357 -85.0659 main 137 113 P____________P AL051852 19.9498 -84.9801 HU 90 2 22.0076 -85.2374 HU 87 13 309
1852278N14293 1852 14 NA CS NOT_NAMED 1852-10-08 00:00:00 TS 21.0333 -85.5667 90 hurdat_atl main 114 75 O____________O hurdat_atl AL051852 20.4000 -85.5000 HU 90 2 22.3000 -85.7000 HU 90 11 310
1852278N14293 1852 14 NA CS NOT_NAMED 1852-10-08 03:00:00 TS 21.3707 -86.0003 main 79 61 P____________P AL051852 20.7775 -85.9954 HU 90 2 22.5573 -86.0102 HU 90 10 314
1852278N14293 1852 14 NA GM NOT_NAMED 1852-10-08 06:00:00 TS 21.7333 -86.3333 90 hurdat_atl main 68 68 O____________O hurdat_atl AL051852 21.2000 -86.4000 HU 90 2 22.8000 -86.2000 HU 90 10 325
1852278N14293 1852 14 NA GM NOT_NAMED 1852-10-08 09:00:00 TS 22.1616 -86.5957 main 88 88 P____________P AL051852 21.7399 -86.7248 HU 90 2 23.0049 -86.3376 HU 90 10 339
1852278N14293 1852 14 NA GM NOT_NAMED 1852-10-08 12:00:00 TS 22.7000 -86.7333 90 hurdat_atl main 137 137 O____________O hurdat_atl AL051852 22.4000 -86.9000 HU 90 2 23.3000 -86.4000 HU 90 12 353
1852278N14293 1852 14 NA GM NOT_NAMED 1852-10-08 15:00:00 TS 23.3791 -86.7502 main 213 213 P____________P AL051852 23.1699 -86.9177 HU 90 2 23.7975 -86.4151 HU 90 14 2
1852278N14293 1852 14 NA GM NOT_NAMED 1852-10-08 18:00:00 TS 24.1333 -86.6667 90 hurdat_atl main 292 292 O____________O hurdat_atl AL051852 24.0000 -86.8000 HU 90 2 24.4000 -86.4000 HU 90 15 7
1852278N14293 1852 14 NA GM NOT_NAMED 1852-10-08 21:00:00 TS 24.8817 -86.5534 main 361 353 P____________P AL051852 24.8225 -86.6301 HU 90 2 25.0000 -86.4000 HU 90 15 9
1852278N14293 1852 14 NA GM NOT_NAMED 1852-10-09 00:00:00 TS 25.6000 -86.4000 90 hurdat_atl main 405 386 O____________O hurdat_atl AL051852 25.6000 -86.4000 HU 90 2 25.6000 -86.4000 HU 90 14 12
1852278N14293 1852 14 NA GM NOT_NAMED 1852-10-09 03:00:00 TS 26.2416 -86.2431 main 377 330 P____________P AL051852 26.2875 -86.1499 HU 90 2 26.1500 -86.4295 HU 90 13 14
1852278N14293 1852 14 NA GM NOT_NAMED 1852-10-09 06:00:00 TS 26.8333 -86.0667 90 hurdat_atl main 330 261 O____________O hurdat_atl AL051852 26.9000 -85.9000 HU 90 2 26.7000 -86.4000 HU 90 12 15
1852278N14293 1852 14 NA GM NOT_NAMED 1852-10-09 09:00:00 TS 27.4048 -85.8961 main 261 203 P____________P AL051852 27.4574 -85.7068 HU 90 2 27.2998 -86.2746 HU 90 12 17
1852278N14293 1852 14 NA GM NOT_NAMED 1852-10-09 12:00:00 TS 27.9667 -85.6667 90 hurdat_atl main 192 133 O____________O hurdat_atl AL051852 28.0000 -85.5000 HU 90 2 27.9000 -86.0000 HU 90 12 23
1852278N14293 1852 14 NA GM NOT_NAMED 1852-10-09 15:00:00 TS 28.5318 -85.3436 main 133 66 P____________P AL051852 28.5725 -85.2539 HU 90 2 28.4504 -85.5229 HU 90 13 29
1852278N14293 1852 14 NA GM NOT_NAMED 1852-10-09 18:00:00 TS 29.1333 -84.9333 90 hurdat_atl main 66 14 O____________O hurdat_atl AL051852 29.2000 -84.9000 HU 90 2 29.0000 -85.0000 HU 90 14 30
1852278N14293 1852 14 NA GM NOT_NAMED 1852-10-09 21:00:00 TS 29.7692 -84.5213 90 hurdat_atl main 11 0 O____________P hurdat_atl AL051852 29.9000 -84.4000 L HU 90 2 29.5077 -84.7639 HU 85 15 32
1852278N14293 1852 14 NA NA NOT_NAMED 1852-10-10 00:00:00 TS 30.4000 -84.0333 80 hurdat_atl main 0 0 O____________O hurdat_atl AL051852 30.5000 -83.9000 HU 80 1 30.2000 -84.3000 HU 80 18 36
1852278N14293 1852 14 NA NA NOT_NAMED 1852-10-10 03:00:00 TS 31.1871 -83.3152 main 0 0 P____________P AL051852 31.1459 -83.4000 HU 70 1 31.2696 -83.1456 HU 70 21 40
1852278N14293 1852 14 NA NA NOT_NAMED 1852-10-10 06:00:00 TS 32.0333 -82.4333 60 hurdat_atl main 0 0 O____________O hurdat_atl AL051852 31.8000 -82.8000 TS 60 0 32.5000 -81.7000 TS 60 23 44
1852278N14293 1852 14 NA NA NOT_NAMED 1852-10-10 09:00:00 TS 32.8516 -81.4510 main 0 0 P____________P AL051852 32.4229 -81.9877 TS 55 0 33.7092 -80.3777 TS 55 23 47
1852278N14293 1852 14 NA NA NOT_NAMED 1852-10-10 12:00:00 TS 33.6000 -80.4333 50 hurdat_atl main 0 0 O____________O hurdat_atl AL051852 33.0000 -81.1000 TS 50 0 34.8000 -79.1000 TS 50 21 49
1852278N14293 1852 14 NA NA NOT_NAMED 1852-10-10 15:00:00 TS 34.2137 -79.5457 main 0 0 P____________P AL051852 33.5128 -80.3573 TS 50 0 35.6156 -77.9225 TS 50 19 52
1852278N14293 1852 14 NA NA NOT_NAMED 1852-10-10 18:00:00 TS 34.7667 -78.6000 50 hurdat_atl main 0 0 O____________O hurdat_atl AL051852 34.0000 -79.5000 TS 50 0 36.3000 -76.8000 TS 50 21 56
1852278N14293 1852 14 NA NA NOT_NAMED 1852-10-10 21:00:00 TS 35.3496 -77.4647 main 0 0 P____________P AL051852 34.4993 -78.3538 TS 50 0 37.0502 -75.6864 TS 50 23 60
1852278N14293 1852 14 NA NA NOT_NAMED 1852-10-11 00:00:00 TS 35.9000 -76.1667 50 hurdat_atl main 0 0 O____________O hurdat_atl AL051852 35.0000 -77.0000 TS 50 0 37.7000 -74.5000 TS 50 24 66
1852278N14293 1852 14 NA NA NOT_NAMED 1852-10-11 03:00:00 TS 36.3316 -74.7834 main 79 79 P____________P AL051852 35.4216 -75.6041 TS 50 0 38.1518 -73.1421 TS 50 25 68
1852278N14293 1852 14 NA NA NOT_NAMED 1852-10-11 06:00:00 TS 36.8333 -73.2333 50 hurdat_atl main 231 231 O____________O hurdat_atl AL051852 36.0000 -74.0000 TS 50 0 38.5000 -71.7000 TS 50 29 65
1852278N14293 1852 14 NA NA NOT_NAMED 1852-10-11 09:00:00 TS 37.5738 -71.4726 main 322 322 P____________P AL051852 36.9254 -72.0769 TS 55 0 38.8707 -70.2641 TS 55 34 61
1852278N14293 1852 14 NA NA NOT_NAMED 1852-10-11 12:00:00 TS 38.4800 -69.5200 60 hurdat_atl main 349 326 O____________O hurdat_atl AL051852 38.0000 -70.0000 TS 60 0 39.2000 -68.8000 TS 60 34 61
1852278N14293 1852 14 NA NA NOT_NAMED 1852-10-11 15:00:00 TS 39.2531 -67.6631 main 329 329 P____________P AL051852 39.0293 -67.9825 TS 60 0 39.4768 -67.3436 TS 60 31 65
1852278N14293 1852 14 NA NA NOT_NAMED 1852-10-11 18:00:00 TS 39.8000 -65.8667 60 hurdat_atl main 403 400 O____________O hurdat_atl AL051852 40.0000 -66.0000 TS 60 0 39.7000 -65.8000 TS 60 28 78
1852278N14293 1852 14 NA NA NOT_NAMED 1852-10-11 21:00:00 TS 39.8551 -64.1149 main 412 412 _____________P AL051852 TS -1 39.8551 -64.1149 TS 62 27 86
1852278N14293 1852 14 NA NA NOT_NAMED 1852-10-12 00:00:00 TS 40.0000 -62.3000 main 461 461 _____________O -1 40.0000 -62.3000 HU 65 29 83
1852278N14293 1852 14 NA NA NOT_NAMED 1852-10-12 03:00:00 TS 40.1982 -60.3802 main 535 535 _____________P -1 40.1982 -60.3802 HU 65 30 82
1852278N14293 1852 14 NA NA NOT_NAMED 1852-10-12 06:00:00 TS 40.4000 -58.4000 main 577 577 _____________O -1 40.4000 -58.4000 HU 65 30 83
1852278N14293 1852 14 NA NA NOT_NAMED 1852-10-12 09:00:00 TS 40.5518 -56.4929 main 633 633 _____________P -1 40.5518 -56.4929 HU 65 30 84
1852278N14293 1852 14 NA NA NOT_NAMED 1852-10-12 12:00:00 TS 40.7000 -54.5000 main 659 644 _____________O -1 40.7000 -54.5000 HU 65 993 32 84
1852278N14293 1852 14 NA NA NOT_NAMED 1852-10-12 15:00:00 TS 40.8585 -52.3130 main 637 637 _____________P -1 40.8585 -52.3130 HU 62 34 85
1852278N14293 1852 14 NA NA NOT_NAMED 1852-10-12 18:00:00 TS 41.0000 -50.0000 main 672 _____________O -1 41.0000 -50.0000 TS 60 35 85

About IBTrACS Database

This database is a web-friendly format of International Best Track Archive for Climate Stewardship (IBTrACS), a global best track data archive curated by NOAA dating back to 1842.

Updated: 2021-10-08